createdAt,value
2018-01-06T00:00:48.716Z,11.40
2018-01-06T00:03:16.294Z,11.40
2018-01-06T00:05:44.219Z,11.40
2018-01-06T00:08:11.829Z,11.30
2018-01-06T00:10:39.410Z,11.20
2018-01-06T00:13:06.999Z,11.20
2018-01-06T00:15:34.569Z,11.20
2018-01-06T00:18:02.167Z,11.20
2018-01-06T00:20:29.722Z,11.20
2018-01-06T00:22:57.319Z,11.20
2018-01-06T00:25:24.886Z,11.30
2018-01-06T00:27:52.493Z,11.30
2018-01-06T00:30:20.012Z,11.30
2018-01-06T00:32:47.610Z,11.30
2018-01-06T00:35:15.178Z,11.40
2018-01-06T00:37:42.788Z,11.40
2018-01-06T00:40:10.324Z,11.40
2018-01-06T00:42:37.882Z,11.40
2018-01-06T00:45:05.469Z,11.40
2018-01-06T00:47:33.063Z,11.30
2018-01-06T00:50:00.623Z,11.40
2018-01-06T00:52:28.138Z,11.40
2018-01-06T00:54:55.729Z,11.40
2018-01-06T00:57:23.239Z,11.40
2018-01-06T00:59:50.788Z,11.30
2018-01-06T01:02:18.345Z,11.40
2018-01-06T01:04:45.893Z,11.40
2018-01-06T01:07:13.416Z,11.40
2018-01-06T01:09:42.648Z,11.30
2018-01-06T01:12:10.184Z,11.30
2018-01-06T01:14:37.752Z,11.30
2018-01-06T01:17:06.241Z,11.30
2018-01-06T01:19:33.756Z,11.30
2018-01-06T01:22:01.301Z,11.30
2018-01-06T01:24:28.803Z,11.40
2018-01-06T01:26:56.402Z,11.40
2018-01-06T01:29:23.905Z,11.30
2018-01-06T01:31:51.448Z,11.40
2018-01-06T01:34:18.996Z,11.40
2018-01-06T01:36:46.534Z,11.30
2018-01-06T01:39:14.044Z,11.30
2018-01-06T01:41:41.587Z,11.40
2018-01-06T01:44:09.107Z,11.40
2018-01-06T01:46:37.881Z,11.40
2018-01-06T01:49:05.387Z,11.30
2018-01-06T01:51:33.624Z,11.30
2018-01-06T01:54:01.166Z,11.40
2018-01-06T01:56:28.705Z,11.30
2018-01-06T01:58:56.218Z,11.20
2018-01-06T02:01:23.799Z,11.20
2018-01-06T02:03:51.305Z,11.30
2018-01-06T02:06:18.846Z,11.40
2018-01-06T02:08:46.432Z,11.40
2018-01-06T02:11:13.943Z,11.30
2018-01-06T02:13:42.267Z,11.30
2018-01-06T02:16:09.825Z,11.30
2018-01-06T02:18:37.372Z,11.20
2018-01-06T02:21:04.879Z,11.20
2018-01-06T02:23:32.380Z,11.20
2018-01-06T02:25:59.924Z,11.10
2018-01-06T02:28:28.200Z,11.20
2018-01-06T02:30:55.713Z,11.20
2018-01-06T02:33:23.244Z,11.30
2018-01-06T02:35:50.760Z,11.20
2018-01-06T02:38:18.344Z,11.20
2018-01-06T02:40:45.911Z,11.20
2018-01-06T02:43:14.225Z,11.20
2018-01-06T02:45:41.743Z,11.10
2018-01-06T02:48:10.052Z,11.10
2018-01-06T02:50:37.560Z,11.10
2018-01-06T02:53:05.088Z,11.20
2018-01-06T02:55:32.600Z,11.00
2018-01-06T02:58:00.157Z,11.10
2018-01-06T03:00:27.725Z,11.10
2018-01-06T03:02:55.281Z,11.00
2018-01-06T03:05:22.793Z,11.00
2018-01-06T03:07:50.339Z,11.10
2018-01-06T03:10:17.932Z,11.10
2018-01-06T03:12:45.502Z,11.00
2018-01-06T03:15:13.016Z,11.00
2018-01-06T03:17:40.533Z,11.00
2018-01-06T03:20:08.854Z,11.10
2018-01-06T03:22:36.542Z,11.10
2018-01-06T03:25:04.094Z,11.10
2018-01-06T03:27:32.542Z,11.10
2018-01-06T03:30:00.090Z,11.20
2018-01-06T03:32:27.640Z,11.20
2018-01-06T03:34:55.155Z,11.10
2018-01-06T03:37:22.705Z,11.10
2018-01-06T03:39:50.258Z,11.00
2018-01-06T03:42:17.802Z,11.00
2018-01-06T03:44:45.359Z,11.00
2018-01-06T03:47:12.879Z,11.10
2018-01-06T03:49:40.465Z,11.10
2018-01-06T03:52:08.006Z,11.10
2018-01-06T03:54:36.377Z,11.10
2018-01-06T03:57:04.705Z,11.10
2018-01-06T03:59:32.216Z,11.00
2018-01-06T04:02:00.552Z,11.00
2018-01-06T04:04:28.072Z,11.00
2018-01-06T04:06:55.596Z,11.00
2018-01-06T04:09:23.158Z,11.00
2018-01-06T04:11:50.681Z,11.00
2018-01-06T04:14:18.201Z,11.00
2018-01-06T04:16:46.521Z,11.00
2018-01-06T04:19:14.044Z,11.00
2018-01-06T04:21:41.597Z,11.00
2018-01-06T04:24:09.147Z,11.00
2018-01-06T04:26:36.702Z,10.90
2018-01-06T04:29:05.025Z,10.90
2018-01-06T04:31:32.576Z,10.90
2018-01-06T04:34:00.135Z,10.90
2018-01-06T04:36:27.657Z,10.90
2018-01-06T04:38:55.189Z,10.90
2018-01-06T04:41:22.718Z,10.90
2018-01-06T04:43:50.286Z,10.80
2018-01-06T04:46:17.811Z,10.80
2018-01-06T04:48:45.369Z,10.80
2018-01-06T04:51:13.653Z,10.90
2018-01-06T04:53:41.183Z,10.90
2018-01-06T04:56:08.738Z,10.80
2018-01-06T04:58:36.249Z,10.90
2018-01-06T05:01:03.816Z,10.80
2018-01-06T05:03:31.367Z,10.80
2018-01-06T05:05:58.894Z,10.70
2018-01-06T05:08:26.457Z,10.80
2018-01-06T05:10:53.977Z,10.80
2018-01-06T05:13:21.493Z,10.80
2018-01-06T05:15:49.081Z,10.80
2018-01-06T05:18:16.637Z,10.70
2018-01-06T05:20:44.185Z,10.70
2018-01-06T05:23:11.713Z,10.70
2018-01-06T05:25:39.257Z,10.60
2018-01-06T05:28:06.802Z,10.70
2018-01-06T05:30:34.357Z,10.70
2018-01-06T05:33:02.900Z,10.70
2018-01-06T05:35:30.469Z,10.80
2018-01-06T05:37:57.990Z,10.80
2018-01-06T05:40:25.553Z,10.70
2018-01-06T05:42:53.072Z,10.80
2018-01-06T05:45:20.624Z,10.80
2018-01-06T05:47:48.196Z,10.80
2018-01-06T05:50:15.717Z,10.80
2018-01-06T05:52:43.280Z,10.80
2018-01-06T05:55:10.841Z,10.80
2018-01-06T05:57:38.371Z,10.70
2018-01-06T06:00:06.662Z,10.70
2018-01-06T06:02:34.240Z,10.60
2018-01-06T06:05:01.955Z,10.70
2018-01-06T06:07:29.488Z,10.70
2018-01-06T06:09:57.015Z,10.70
2018-01-06T06:12:24.577Z,10.60
2018-01-06T06:14:52.088Z,10.70
2018-01-06T06:17:19.693Z,10.60
2018-01-06T06:19:47.217Z,10.70
2018-01-06T06:22:14.774Z,10.70
2018-01-06T06:24:42.368Z,10.70
2018-01-06T06:27:09.880Z,10.70
2018-01-06T06:29:37.436Z,10.70
2018-01-06T06:32:04.974Z,10.70
2018-01-06T06:34:32.517Z,10.80
2018-01-06T06:37:00.047Z,10.70
2018-01-06T06:39:27.606Z,10.70
2018-01-06T06:41:55.125Z,10.80
2018-01-06T06:44:22.684Z,10.80
2018-01-06T06:46:50.411Z,10.70
2018-01-06T06:49:17.962Z,10.60
2018-01-06T06:51:45.476Z,10.60
2018-01-06T06:54:13.036Z,10.60
2018-01-06T06:56:40.572Z,10.60
2018-01-06T06:59:08.142Z,10.60
2018-01-06T07:01:35.658Z,10.70
2018-01-06T07:04:03.193Z,10.70
2018-01-06T07:06:31.514Z,10.60
2018-01-06T07:08:59.032Z,10.60
2018-01-06T07:11:28.060Z,10.60
2018-01-06T07:13:55.622Z,10.60
2018-01-06T07:16:23.190Z,10.60
2018-01-06T07:18:50.715Z,10.70
2018-01-06T07:21:18.271Z,10.70
2018-01-06T07:23:45.917Z,10.60
2018-01-06T07:26:14.234Z,10.60
2018-01-06T07:28:41.778Z,10.50
2018-01-06T07:31:09.302Z,10.70
2018-01-06T07:33:36.876Z,10.70
2018-01-06T07:36:04.409Z,10.70
2018-01-06T07:38:31.970Z,10.80
2018-01-06T07:40:59.495Z,10.70
2018-01-06T07:43:27.066Z,10.70
2018-01-06T07:45:54.629Z,10.70
2018-01-06T07:48:22.184Z,10.70
2018-01-06T07:50:49.738Z,10.60
2018-01-06T07:53:17.291Z,10.70
2018-01-06T07:55:44.809Z,10.60
2018-01-06T07:58:12.361Z,10.60
2018-01-06T08:00:39.898Z,10.70
2018-01-06T08:03:07.445Z,10.70
2018-01-06T08:05:34.961Z,10.80
2018-01-06T08:08:02.506Z,10.70
2018-01-06T08:10:30.085Z,10.70
2018-01-06T08:12:57.642Z,10.80
2018-01-06T08:15:25.206Z,10.80
2018-01-06T08:17:52.761Z,10.80
2018-01-06T08:20:21.040Z,10.90
2018-01-06T08:22:48.623Z,10.90
2018-01-06T08:25:16.142Z,10.90
2018-01-06T08:27:43.694Z,10.90
2018-01-06T08:30:11.208Z,10.80
2018-01-06T08:32:38.760Z,10.80
2018-01-06T08:35:06.322Z,10.90
2018-01-06T08:37:33.852Z,10.90
2018-01-06T08:40:01.481Z,10.90
2018-01-06T08:42:28.966Z,11.00
2018-01-06T08:44:56.506Z,11.10
2018-01-06T08:47:24.097Z,11.10
2018-01-06T08:49:51.617Z,11.20
2018-01-06T08:52:19.131Z,11.20
2018-01-06T08:54:46.688Z,11.20
2018-01-06T08:57:14.232Z,11.30
2018-01-06T08:59:41.800Z,11.30
2018-01-06T09:02:09.330Z,11.40
2018-01-06T09:04:36.848Z,11.50
2018-01-06T09:07:04.413Z,11.50
2018-01-06T09:09:31.973Z,11.50
2018-01-06T09:11:59.517Z,11.50
2018-01-06T09:14:27.044Z,11.60
2018-01-06T09:16:55.358Z,11.80
2018-01-06T09:19:22.880Z,11.80
2018-01-06T09:21:51.204Z,11.80
2018-01-06T09:24:18.729Z,11.80
2018-01-06T09:26:46.342Z,11.80
2018-01-06T09:29:13.864Z,11.90
2018-01-06T09:31:41.386Z,12.00
2018-01-06T09:34:09.705Z,11.90
2018-01-06T09:36:37.233Z,11.80
2018-01-06T09:39:04.794Z,11.90
2018-01-06T09:41:32.316Z,11.90
2018-01-06T09:43:59.897Z,11.90
2018-01-06T09:46:28.225Z,12.00
2018-01-06T09:48:55.762Z,11.90
2018-01-06T09:51:23.331Z,12.00
2018-01-06T09:53:50.895Z,12.00
2018-01-06T09:56:18.472Z,12.00
2018-01-06T09:58:46.021Z,12.00
2018-01-06T10:01:13.605Z,12.10
2018-01-06T10:03:41.143Z,12.10
2018-01-06T10:06:08.693Z,12.10
2018-01-06T10:08:36.229Z,12.20
2018-01-06T10:11:03.821Z,12.30
2018-01-06T10:13:31.341Z,12.30
2018-01-06T10:15:58.910Z,12.30
2018-01-06T10:18:26.441Z,12.40
2018-01-06T10:20:54.007Z,12.40
2018-01-06T10:23:21.583Z,12.40
2018-01-06T10:25:49.115Z,12.40
2018-01-06T10:28:16.715Z,12.30
2018-01-06T10:30:44.233Z,12.40
2018-01-06T10:33:11.801Z,12.40
2018-01-06T10:35:39.322Z,12.40
2018-01-06T10:38:06.865Z,12.40
2018-01-06T10:40:34.418Z,12.40
2018-01-06T10:43:01.940Z,12.50
2018-01-06T10:45:30.308Z,12.50
2018-01-06T10:47:57.825Z,12.40
2018-01-06T10:50:25.370Z,12.50
2018-01-06T10:52:52.920Z,12.50
2018-01-06T10:55:20.480Z,12.50
2018-01-06T10:57:48.007Z,12.60
2018-01-06T11:00:16.288Z,12.60
2018-01-06T11:02:43.859Z,12.60
2018-01-06T11:05:11.435Z,12.60
2018-01-06T11:07:38.968Z,12.70
2018-01-06T11:10:06.492Z,12.60
2018-01-06T11:12:34.046Z,12.70
2018-01-06T11:15:02.192Z,12.70
2018-01-06T11:17:29.773Z,12.70
2018-01-06T11:19:57.305Z,12.70
2018-01-06T11:22:24.889Z,12.70
2018-01-06T11:24:52.456Z,12.70
2018-01-06T11:27:19.974Z,12.70
2018-01-06T11:29:47.539Z,12.70
2018-01-06T11:32:15.138Z,12.70
2018-01-06T11:34:42.666Z,12.80
2018-01-06T11:37:10.218Z,12.80
2018-01-06T11:39:37.815Z,12.80
2018-01-06T11:42:05.332Z,12.80
2018-01-06T11:44:33.659Z,12.80
2018-01-06T11:47:01.179Z,12.80
2018-01-06T11:49:28.728Z,12.80
2018-01-06T11:51:56.279Z,12.80
2018-01-06T11:54:24.568Z,12.80
2018-01-06T11:56:52.130Z,12.80
2018-01-06T11:59:20.461Z,12.90
2018-01-06T12:01:47.981Z,12.90
2018-01-06T12:04:15.533Z,12.90
2018-01-06T12:06:43.073Z,12.90
2018-01-06T12:09:10.629Z,12.90
2018-01-06T12:11:38.957Z,12.90
2018-01-06T12:14:06.492Z,12.90
2018-01-06T12:16:34.053Z,12.90
2018-01-06T12:19:01.568Z,12.90
2018-01-06T12:21:29.083Z,12.90
2018-01-06T12:23:56.654Z,12.90
2018-01-06T12:26:24.178Z,12.90
2018-01-06T12:28:51.728Z,13.00
2018-01-06T12:31:19.285Z,13.00
2018-01-06T12:33:47.564Z,13.00
2018-01-06T12:36:15.104Z,13.00
2018-01-06T12:38:42.683Z,13.00
2018-01-06T12:41:10.994Z,12.90
2018-01-06T12:43:38.596Z,12.90
2018-01-06T12:46:06.234Z,12.90
2018-01-06T12:48:33.759Z,12.90
2018-01-06T12:51:01.316Z,12.90
2018-01-06T12:53:28.877Z,12.90
2018-01-06T12:55:56.396Z,12.90
2018-01-06T12:58:23.977Z,13.00
2018-01-06T13:00:52.330Z,13.00
2018-01-06T13:03:19.858Z,13.00
2018-01-06T13:05:47.410Z,12.90
2018-01-06T13:08:14.925Z,13.00
2018-01-06T13:10:42.484Z,13.00
2018-01-06T13:13:10.048Z,13.00
2018-01-06T13:15:38.338Z,13.10
2018-01-06T13:18:06.696Z,13.00
2018-01-06T13:20:34.222Z,13.00
2018-01-06T13:23:01.794Z,13.10
2018-01-06T13:25:29.318Z,13.10
2018-01-06T13:27:56.845Z,13.10
2018-01-06T13:30:24.385Z,13.10
2018-01-06T13:32:51.915Z,13.10
2018-01-06T13:35:19.456Z,13.10
2018-01-06T13:37:47.066Z,13.10
2018-01-06T13:40:14.632Z,13.10
2018-01-06T13:42:42.208Z,13.10
2018-01-06T13:45:09.727Z,13.10
2018-01-06T13:47:37.601Z,13.10
2018-01-06T13:50:05.161Z,13.10
2018-01-06T13:52:32.689Z,13.10
2018-01-06T13:55:00.326Z,13.10
2018-01-06T13:57:27.853Z,13.00
2018-01-06T13:59:55.397Z,13.00
2018-01-06T14:02:22.958Z,13.10
2018-01-06T14:04:50.520Z,13.10
2018-01-06T14:07:18.084Z,13.00
2018-01-06T14:09:45.604Z,13.10
2018-01-06T14:12:13.157Z,13.00
2018-01-06T14:14:40.712Z,13.00
2018-01-06T14:17:08.279Z,13.00
2018-01-06T14:19:35.802Z,13.00
2018-01-06T14:22:03.336Z,13.00
2018-01-06T14:24:30.880Z,13.00
2018-01-06T14:26:58.404Z,13.00
2018-01-06T14:29:25.962Z,13.00
2018-01-06T14:31:53.580Z,13.00
2018-01-06T14:34:21.149Z,13.00
2018-01-06T14:36:48.674Z,13.00
2018-01-06T14:39:16.257Z,13.00
2018-01-06T14:41:43.802Z,13.00
2018-01-06T14:44:11.362Z,13.00
2018-01-06T14:46:38.881Z,13.10
2018-01-06T14:49:06.436Z,13.10
2018-01-06T14:51:33.990Z,13.10
2018-01-06T14:54:01.607Z,13.00
2018-01-06T14:56:29.169Z,13.00
2018-01-06T14:58:56.738Z,13.00
2018-01-06T15:01:24.294Z,12.90
2018-01-06T15:03:51.891Z,12.90
2018-01-06T15:09:01.464Z,12.90
2018-01-06T15:11:28.996Z,12.80
2018-01-06T15:13:56.557Z,12.80
2018-01-06T15:16:24.097Z,12.80
2018-01-06T15:18:51.662Z,12.80
2018-01-06T15:21:19.218Z,12.80
2018-01-06T15:23:46.780Z,12.80
2018-01-06T15:26:14.346Z,12.70
2018-01-06T15:28:41.907Z,12.70
2018-01-06T15:31:09.537Z,12.70
2018-01-06T15:33:37.095Z,12.70
2018-01-06T15:36:04.658Z,12.70
2018-01-06T15:38:32.174Z,12.60
2018-01-06T15:40:59.734Z,12.60
2018-01-06T15:43:27.280Z,12.50
2018-01-06T15:45:54.812Z,12.50
2018-01-06T15:48:22.389Z,12.50
2018-01-06T15:50:49.947Z,12.40
2018-01-06T15:53:17.509Z,12.40
2018-01-06T15:55:45.826Z,12.30
2018-01-06T15:58:13.428Z,12.30
2018-01-06T16:00:41.058Z,12.20
2018-01-06T16:03:08.573Z,12.20
2018-01-06T16:05:36.857Z,12.10
2018-01-06T16:08:04.409Z,12.10
2018-01-06T16:10:32.693Z,12.00
2018-01-06T16:13:00.292Z,12.00
2018-01-06T16:15:27.884Z,12.00
2018-01-06T16:17:55.422Z,11.90
2018-01-06T16:20:22.983Z,11.80
2018-01-06T16:22:50.529Z,11.70
2018-01-06T16:25:18.045Z,11.70
2018-01-06T16:27:45.644Z,11.70
2018-01-06T16:30:13.197Z,11.60
2018-01-06T16:32:40.730Z,11.50
2018-01-06T16:35:08.347Z,11.50
2018-01-06T16:37:35.941Z,11.40
2018-01-06T16:40:03.516Z,11.40
2018-01-06T16:42:31.809Z,11.40
2018-01-06T16:44:59.363Z,11.40
2018-01-06T16:47:26.927Z,11.50
2018-01-06T16:49:54.527Z,11.50
2018-01-06T16:52:22.113Z,11.50
2018-01-06T16:54:49.714Z,11.40
2018-01-06T16:57:17.274Z,11.40
2018-01-06T16:59:44.894Z,11.30
2018-01-06T17:02:12.426Z,11.30
2018-01-06T17:04:40.016Z,11.30
2018-01-06T17:07:07.544Z,11.30
2018-01-06T17:09:35.107Z,11.20
2018-01-06T17:12:02.717Z,11.30
2018-01-06T17:14:30.300Z,11.20
2018-01-06T17:16:57.897Z,11.10
2018-01-06T17:19:25.418Z,11.20
2018-01-06T17:21:52.987Z,11.10
2018-01-06T17:24:20.593Z,11.00
2018-01-06T17:26:48.215Z,11.00
2018-01-06T17:29:16.502Z,11.00
2018-01-06T17:31:44.027Z,11.00
2018-01-06T17:34:11.656Z,10.90
2018-01-06T17:36:39.198Z,11.00
2018-01-06T17:39:06.806Z,10.90
2018-01-06T17:41:34.346Z,10.80
2018-01-06T17:44:01.974Z,10.80
2018-01-06T17:46:29.554Z,10.70
2018-01-06T17:48:57.108Z,10.70
2018-01-06T17:51:24.682Z,10.70
2018-01-06T17:53:53.047Z,10.60
2018-01-06T17:56:20.690Z,10.60
2018-01-06T17:58:48.309Z,10.50
2018-01-06T18:01:15.922Z,10.60
2018-01-06T18:03:43.526Z,10.60
2018-01-06T18:06:11.084Z,10.60
2018-01-06T18:08:38.616Z,10.50
2018-01-06T18:11:06.229Z,10.40
2018-01-06T18:13:33.795Z,10.40
2018-01-06T18:16:01.404Z,10.40
2018-01-06T18:18:29.760Z,10.30
2018-01-06T18:20:57.387Z,10.30
2018-01-06T18:23:24.992Z,10.30
2018-01-06T18:25:52.572Z,10.30
2018-01-06T18:28:20.141Z,10.30
2018-01-06T18:30:47.755Z,10.30
2018-01-06T18:33:15.337Z,10.30
2018-01-06T18:35:42.950Z,10.30
2018-01-06T18:38:10.521Z,10.20
2018-01-06T18:40:38.083Z,10.10
2018-01-06T18:43:05.702Z,10.10
2018-01-06T18:45:33.302Z,10.10
2018-01-06T18:48:00.912Z,10.00
2018-01-06T18:50:28.451Z,9.90
2018-01-06T18:52:56.020Z,10.00
2018-01-06T18:55:23.579Z,10.00
2018-01-06T18:57:51.174Z,10.00
2018-01-06T19:00:18.736Z,9.90
2018-01-06T19:02:46.360Z,10.00
2018-01-06T19:05:13.984Z,9.90
2018-01-06T19:07:41.564Z,9.90
2018-01-06T19:10:09.132Z,9.80
2018-01-06T19:12:36.695Z,9.90
2018-01-06T19:15:04.306Z,9.80
2018-01-06T19:17:31.909Z,9.90
2018-01-06T19:19:59.470Z,9.80
2018-01-06T19:22:27.041Z,9.80
2018-01-06T19:24:54.698Z,9.70
2018-01-06T19:27:22.222Z,9.70
2018-01-06T19:29:50.030Z,9.70
2018-01-06T19:32:17.634Z,9.70
2018-01-06T19:34:45.238Z,9.70
2018-01-06T19:37:12.857Z,9.70
2018-01-06T19:39:40.468Z,9.60
2018-01-06T19:42:08.045Z,9.60
2018-01-06T19:44:35.601Z,9.60
2018-01-06T19:47:03.217Z,9.60
2018-01-06T19:49:30.771Z,9.60
2018-01-06T19:51:58.373Z,9.40
2018-01-06T19:54:26.000Z,9.40
2018-01-06T19:56:53.604Z,9.40
2018-01-06T19:59:21.979Z,9.50
2018-01-06T20:01:49.565Z,9.40
2018-01-06T20:04:17.150Z,9.40
2018-01-06T20:06:44.761Z,9.40
2018-01-06T20:09:12.367Z,9.30
2018-01-06T20:11:40.744Z,9.40
2018-01-06T20:14:08.327Z,9.30
2018-01-06T20:16:35.940Z,9.50
2018-01-06T20:19:03.580Z,9.40
2018-01-06T20:21:31.205Z,9.40
2018-01-06T20:23:58.816Z,9.40
2018-01-06T20:26:26.429Z,9.30
2018-01-06T20:28:54.019Z,9.30
2018-01-06T20:31:21.630Z,9.20
2018-01-06T20:33:49.259Z,9.20
2018-01-06T20:36:17.630Z,9.20
2018-01-06T20:38:45.211Z,9.20
2018-01-06T20:41:12.829Z,9.20
2018-01-06T20:43:40.417Z,9.20
2018-01-06T20:46:08.042Z,9.20
2018-01-06T20:48:35.629Z,9.30
2018-01-06T20:51:03.213Z,9.30
2018-01-06T20:53:31.594Z,9.10
2018-01-06T20:55:59.209Z,9.10
2018-01-06T20:58:26.802Z,9.20
2018-01-06T21:00:55.225Z,9.30
2018-01-06T21:03:22.814Z,9.20
2018-01-06T21:05:50.461Z,9.30
2018-01-06T21:08:18.079Z,9.30
2018-01-06T21:10:45.659Z,9.20
2018-01-06T21:13:13.273Z,9.30
2018-01-06T21:15:40.860Z,9.30
2018-01-06T21:18:09.226Z,9.30
2018-01-06T21:20:37.625Z,9.30
2018-01-06T21:23:05.192Z,9.30
2018-01-06T21:25:32.806Z,9.40
2018-01-06T21:28:00.385Z,9.30
2018-01-06T21:30:28.014Z,9.30
2018-01-06T21:32:55.592Z,9.10
2018-01-06T21:35:23.202Z,9.10
2018-01-06T21:37:50.813Z,9.10
2018-01-06T21:40:18.395Z,9.10
2018-01-06T21:42:46.076Z,9.10
2018-01-06T21:45:13.654Z,9.10
2018-01-06T21:47:41.237Z,9.00
2018-01-06T21:50:08.866Z,9.00
2018-01-06T21:52:36.457Z,9.00
2018-01-06T21:55:04.041Z,8.90
2018-01-06T21:57:31.666Z,8.80
2018-01-06T21:59:59.260Z,8.80
2018-01-06T22:02:26.893Z,8.80
2018-01-06T22:04:54.486Z,8.70
2018-01-06T22:07:22.112Z,8.70
2018-01-06T22:09:49.723Z,8.70
2018-01-06T22:12:17.333Z,8.70
2018-01-06T22:14:44.927Z,8.70
2018-01-06T22:17:12.530Z,8.70
2018-01-06T22:19:40.129Z,8.70
2018-01-06T22:22:07.800Z,8.70
2018-01-06T22:24:35.372Z,8.70
2018-01-06T22:27:02.983Z,8.70
2018-01-06T22:29:30.559Z,8.70
2018-01-06T22:31:58.165Z,8.70
2018-01-06T22:34:26.500Z,8.60
2018-01-06T22:36:54.099Z,8.60
2018-01-06T22:39:21.705Z,8.60
2018-01-06T22:41:49.282Z,8.60
2018-01-06T22:44:16.889Z,8.60
2018-01-06T22:46:44.499Z,8.60
2018-01-06T22:49:12.073Z,8.60
2018-01-06T22:51:39.688Z,8.60
2018-01-06T22:54:07.296Z,8.50
2018-01-06T22:56:34.862Z,8.60
2018-01-06T22:59:02.476Z,8.50
2018-01-06T23:01:30.061Z,8.60
2018-01-06T23:03:57.660Z,8.50
2018-01-06T23:06:25.301Z,8.50
2018-01-06T23:08:52.881Z,8.60
2018-01-06T23:11:20.489Z,8.60
2018-01-06T23:13:48.067Z,8.60
2018-01-06T23:16:15.679Z,8.50
2018-01-06T23:18:43.248Z,8.50
2018-01-06T23:21:11.623Z,8.40
2018-01-06T23:23:40.012Z,8.40
2018-01-06T23:26:07.630Z,8.40
2018-01-06T23:28:35.273Z,8.40
2018-01-06T23:31:02.840Z,8.40
2018-01-06T23:33:31.213Z,8.40
2018-01-06T23:35:58.789Z,8.30
2018-01-06T23:38:26.401Z,8.30
2018-01-06T23:40:53.971Z,8.30
2018-01-06T23:43:21.576Z,8.40
2018-01-06T23:45:49.208Z,8.40
2018-01-06T23:48:17.685Z,8.40
2018-01-06T23:50:45.277Z,8.40
2018-01-06T23:53:12.885Z,8.30
2018-01-06T23:55:40.494Z,8.20
2018-01-06T23:58:08.060Z,8.20
